sensor_id;sensor_type;location;lat;lon;timestamp;pressure;altitude;pressure_sealevel;temperature;humidity
16690;BME280;8458;52.220;9.884;2023-03-01T00:01:31;102332.63;;;0.33;72.58
16690;BME280;8458;52.220;9.884;2023-03-01T00:03:58;102330.25;;;0.38;73.32
16690;BME280;8458;52.220;9.884;2023-03-01T00:06:25;102340.88;;;0.41;73.26
16690;BME280;8458;52.220;9.884;2023-03-01T00:08:52;102338.81;;;0.43;72.97
16690;BME280;8458;52.220;9.884;2023-03-01T00:11:22;102333.84;;;0.39;72.75
16690;BME280;8458;52.220;9.884;2023-03-01T00:13:50;102336.03;;;0.35;72.34
16690;BME280;8458;52.220;9.884;2023-03-01T00:16:19;102349.31;;;0.30;72.06
16690;BME280;8458;52.220;9.884;2023-03-01T00:18:46;102344.84;;;0.29;72.39
16690;BME280;8458;52.220;9.884;2023-03-01T00:21:12;102344.53;;;0.32;72.41
16690;BME280;8458;52.220;9.884;2023-03-01T00:23:39;102346.41;;;0.31;72.23
16690;BME280;8458;52.220;9.884;2023-03-01T00:26:07;102352.50;;;0.25;72.38
16690;BME280;8458;52.220;9.884;2023-03-01T00:28:36;102345.84;;;0.28;72.92
16690;BME280;8458;52.220;9.884;2023-03-01T00:31:04;102339.69;;;0.26;73.36
16690;BME280;8458;52.220;9.884;2023-03-01T00:33:30;102339.00;;;0.24;72.89
16690;BME280;8458;52.220;9.884;2023-03-01T00:35:57;102340.72;;;0.25;72.00
16690;BME280;8458;52.220;9.884;2023-03-01T00:38:24;102344.47;;;0.24;72.11
16690;BME280;8458;52.220;9.884;2023-03-01T00:40:51;102338.53;;;0.10;71.42
16690;BME280;8458;52.220;9.884;2023-03-01T00:43:17;102337.44;;;0.03;71.73
16690;BME280;8458;52.220;9.884;2023-03-01T00:45:45;102337.44;;;0.03;72.47
16690;BME280;8458;52.220;9.884;2023-03-01T00:48:12;102320.75;;;0.06;72.66
16690;BME280;8458;52.220;9.884;2023-03-01T00:50:38;102328.53;;;0.01;72.86
16690;BME280;8458;52.220;9.884;2023-03-01T00:53:05;102322.09;;;0.02;72.68
16690;BME280;8458;52.220;9.884;2023-03-01T00:55:31;102319.22;;;0.04;73.05
16690;BME280;8458;52.220;9.884;2023-03-01T00:57:57;102324.28;;;-0.02;71.98
16690;BME280;8458;52.220;9.884;2023-03-01T01:00:24;102332.06;;;-0.07;71.61
16690;BME280;8458;52.220;9.884;2023-03-01T01:02:53;102338.69;;;-0.09;71.50
16690;BME280;8458;52.220;9.884;2023-03-01T01:05:20;102326.22;;;-0.12;71.45
16690;BME280;8458;52.220;9.884;2023-03-01T01:07:46;102326.50;;;-0.15;71.08
16690;BME280;8458;52.220;9.884;2023-03-01T01:10:13;102322.22;;;-0.17;71.29
16690;BME280;8458;52.220;9.884;2023-03-01T01:12:42;102335.84;;;-0.17;71.34
16690;BME280;8458;52.220;9.884;2023-03-01T01:15:09;102330.41;;;-0.17;71.45
16690;BME280;8458;52.220;9.884;2023-03-01T01:17:38;102328.59;;;-0.27;71.48
16690;BME280;8458;52.220;9.884;2023-03-01T01:20:07;102328.91;;;-0.30;71.88
16690;BME280;8458;52.220;9.884;2023-03-01T01:22:34;102321.75;;;-0.31;71.61
16690;BME280;8458;52.220;9.884;2023-03-01T01:25:00;102324.47;;;-0.31;71.67
16690;BME280;8458;52.220;9.884;2023-03-01T01:27:27;102318.28;;;-0.33;71.22
16690;BME280;8458;52.220;9.884;2023-03-01T01:29:53;102312.84;;;-0.33;71.87
16690;BME280;8458;52.220;9.884;2023-03-01T01:32:20;102306.69;;;-0.35;72.62
16690;BME280;8458;52.220;9.884;2023-03-01T01:34:46;102305.28;;;-0.39;72.63
16690;BME280;8458;52.220;9.884;2023-03-01T01:37:14;102307.16;;;-0.40;72.50
16690;BME280;8458;52.220;9.884;2023-03-01T01:39:41;102311.91;;;-0.42;72.56
16690;BME280;8458;52.220;9.884;2023-03-01T01:42:12;102299.59;;;-0.46;73.02
16690;BME280;8458;52.220;9.884;2023-03-01T01:44:42;102300.75;;;-0.48;72.64
16690;BME280;8458;52.220;9.884;2023-03-01T01:47:14;102301.69;;;-0.40;72.81
16690;BME280;8458;52.220;9.884;2023-03-01T01:49:44;102298.81;;;-0.38;73.20
16690;BME280;8458;52.220;9.884;2023-03-01T01:52:17;102303.59;;;-0.40;73.79
16690;BME280;8458;52.220;9.884;2023-03-01T01:54:49;102300.13;;;-0.42;73.26
16690;BME280;8458;52.220;9.884;2023-03-01T01:57:20;102301.31;;;-0.45;73.27
16690;BME280;8458;52.220;9.884;2023-03-01T01:59:51;102298.75;;;-0.46;73.18
16690;BME280;8458;52.220;9.884;2023-03-01T02:02:19;102299.59;;;-0.46;72.87
16690;BME280;8458;52.220;9.884;2023-03-01T02:04:46;102293.03;;;-0.53;72.55
16690;BME280;8458;52.220;9.884;2023-03-01T02:07:17;102287.19;;;-0.58;71.79
16690;BME280;8458;52.220;9.884;2023-03-01T02:09:46;102287.47;;;-0.61;72.17
16690;BME280;8458;52.220;9.884;2023-03-01T02:12:14;102289.66;;;-0.65;72.90
16690;BME280;8458;52.220;9.884;2023-03-01T02:14:40;102289.09;;;-0.68;72.50
16690;BME280;8458;52.220;9.884;2023-03-01T02:17:07;102277.34;;;-0.69;73.05
16690;BME280;8458;52.220;9.884;2023-03-01T02:19:44;102275.16;;;-0.65;72.99
16690;BME280;8458;52.220;9.884;2023-03-01T02:22:20;102273.91;;;-0.71;73.82
16690;BME280;8458;52.220;9.884;2023-03-01T02:24:56;102276.50;;;-0.69;74.00
16690;BME280;8458;52.220;9.884;2023-03-01T02:27:33;102272.19;;;-0.72;74.26
16690;BME280;8458;52.220;9.884;2023-03-01T02:30:03;102273.34;;;-0.75;73.34
16690;BME280;8458;52.220;9.884;2023-03-01T02:32:30;102262.19;;;-0.81;73.82
16690;BME280;8458;52.220;9.884;2023-03-01T02:34:56;102265.94;;;-0.82;72.73
16690;BME280;8458;52.220;9.884;2023-03-01T02:37:23;102259.78;;;-0.84;72.52
16690;BME280;8458;52.220;9.884;2023-03-01T02:39:56;102262.50;;;-0.84;72.45
16690;BME280;8458;52.220;9.884;2023-03-01T02:42:28;102259.38;;;-0.89;72.12
16690;BME280;8458;52.220;9.884;2023-03-01T02:44:56;102259.25;;;-0.98;72.32
16690;BME280;8458;52.220;9.884;2023-03-01T02:47:24;102257.72;;;-1.00;72.06
16690;BME280;8458;52.220;9.884;2023-03-01T02:49:51;102257.88;;;-1.02;72.09
16690;BME280;8458;52.220;9.884;2023-03-01T02:52:27;102248.25;;;-1.06;72.39
16690;BME280;8458;52.220;9.884;2023-03-01T02:55:01;102250.38;;;-1.00;72.47
16690;BME280;8458;52.220;9.884;2023-03-01T02:57:30;102252.41;;;-1.02;71.83
16690;BME280;8458;52.220;9.884;2023-03-01T02:59:59;102251.00;;;-1.06;72.10
16690;BME280;8458;52.220;9.884;2023-03-01T03:02:29;102246.69;;;-1.09;71.93
16690;BME280;8458;52.220;9.884;2023-03-01T03:05:04;102252.28;;;-1.10;72.12
16690;BME280;8458;52.220;9.884;2023-03-01T03:07:31;102239.13;;;-1.15;71.71
16690;BME280;8458;52.220;9.884;2023-03-01T03:09:58;102236.00;;;-1.20;72.28
16690;BME280;8458;52.220;9.884;2023-03-01T03:12:25;102234.28;;;-1.21;72.34
16690;BME280;8458;52.220;9.884;2023-03-01T03:14:51;102231.84;;;-1.24;72.28
16690;BME280;8458;52.220;9.884;2023-03-01T03:17:18;102232.72;;;-1.23;72.12
16690;BME280;8458;52.220;9.884;2023-03-01T03:19:45;102225.41;;;-1.23;71.84
16690;BME280;8458;52.220;9.884;2023-03-01T03:22:12;102220.56;;;-1.29;71.76
16690;BME280;8458;52.220;9.884;2023-03-01T03:24:39;102225.44;;;-1.33;71.90
16690;BME280;8458;52.220;9.884;2023-03-01T03:27:06;102216.28;;;-1.32;72.76
16690;BME280;8458;52.220;9.884;2023-03-01T03:29:33;102226.03;;;-1.39;72.30
16690;BME280;8458;52.220;9.884;2023-03-01T03:31:59;102224.91;;;-1.36;73.17
16690;BME280;8458;52.220;9.884;2023-03-01T03:34:26;102228.47;;;-1.36;72.65
16690;BME280;8458;52.220;9.884;2023-03-01T03:36:54;102230.91;;;-1.33;72.40
16690;BME280;8458;52.220;9.884;2023-03-01T03:39:24;102232.19;;;-1.37;73.06
16690;BME280;8458;52.220;9.884;2023-03-01T03:41:51;102226.16;;;-1.31;73.79
16690;BME280;8458;52.220;9.884;2023-03-01T03:44:17;102223.81;;;-1.26;73.89
16690;BME280;8458;52.220;9.884;2023-03-01T03:46:44;102227.56;;;-1.27;74.03
16690;BME280;8458;52.220;9.884;2023-03-01T03:49:10;102230.56;;;-1.20;74.73
16690;BME280;8458;52.220;9.884;2023-03-01T03:51:37;102226.25;;;-1.22;74.67
16690;BME280;8458;52.220;9.884;2023-03-01T03:54:04;102228.53;;;-1.18;74.50
16690;BME280;8458;52.220;9.884;2023-03-01T03:56:31;102235.09;;;-1.11;73.95
16690;BME280;8458;52.220;9.884;2023-03-01T03:58:58;102231.09;;;-1.16;74.42
16690;BME280;8458;52.220;9.884;2023-03-01T04:01:24;102224.97;;;-1.18;74.09
16690;BME280;8458;52.220;9.884;2023-03-01T04:03:50;102232.28;;;-1.19;73.97
16690;BME280;8458;52.220;9.884;2023-03-01T04:06:19;102229.13;;;-1.24;74.09
16690;BME280;8458;52.220;9.884;2023-03-01T04:08:46;102222.97;;;-1.26;73.89
16690;BME280;8458;52.220;9.884;2023-03-01T04:11:17;102223.19;;;-1.37;74.09
16690;BME280;8458;52.220;9.884;2023-03-01T04:13:54;102224.03;;;-1.37;73.76
16690;BME280;8458;52.220;9.884;2023-03-01T04:16:21;102216.88;;;-1.38;73.56
16690;BME280;8458;52.220;9.884;2023-03-01T04:18:48;102228.06;;;-1.41;72.71
16690;BME280;8458;52.220;9.884;2023-03-01T04:21:15;102223.63;;;-1.42;72.77
16690;BME280;8458;52.220;9.884;2023-03-01T04:23:42;102235.94;;;-1.48;72.89
16690;BME280;8458;52.220;9.884;2023-03-01T04:26:09;102230.50;;;-1.48;72.62
16690;BME280;8458;52.220;9.884;2023-03-01T04:28:38;102235.53;;;-1.53;72.53
16690;BME280;8458;52.220;9.884;2023-03-01T04:31:06;102238.13;;;-1.51;72.75
16690;BME280;8458;52.220;9.884;2023-03-01T04:33:39;102238.13;;;-1.51;72.72
16690;BME280;8458;52.220;9.884;2023-03-01T04:36:08;102238.41;;;-1.54;73.18
16690;BME280;8458;52.220;9.884;2023-03-01T04:38:35;102236.38;;;-1.52;72.74
16690;BME280;8458;52.220;9.884;2023-03-01T04:41:03;102238.25;;;-1.53;73.18
16690;BME280;8458;52.220;9.884;2023-03-01T04:43:29;102239.84;;;-1.50;72.99
16690;BME280;8458;52.220;9.884;2023-03-01T04:46:01;102232.66;;;-1.51;73.40
16690;BME280;8458;52.220;9.884;2023-03-01T04:48:29;102237.22;;;-1.42;73.83
16690;BME280;8458;52.220;9.884;2023-03-01T04:50:55;102242.25;;;-1.47;73.58
16690;BME280;8458;52.220;9.884;2023-03-01T04:53:22;102229.34;;;-1.45;73.87
16690;BME280;8458;52.220;9.884;2023-03-01T04:55:48;102223.81;;;-1.53;73.52
16690;BME280;8458;52.220;9.884;2023-03-01T04:58:15;102234.09;;;-1.57;73.39
16690;BME280;8458;52.220;9.884;2023-03-01T05:00:41;102231.53;;;-1.58;73.93
16690;BME280;8458;52.220;9.884;2023-03-01T05:03:09;102225.69;;;-1.64;72.66
16690;BME280;8458;52.220;9.884;2023-03-01T05:05:37;102226.56;;;-1.73;72.34
16690;BME280;8458;52.220;9.884;2023-03-01T05:08:06;102218.28;;;-1.81;72.09
16690;BME280;8458;52.220;9.884;2023-03-01T05:10:35;102225.59;;;-1.91;72.70
16690;BME280;8458;52.220;9.884;2023-03-01T05:13:03;102232.75;;;-1.90;72.66
16690;BME280;8458;52.220;9.884;2023-03-01T05:15:31;102234.72;;;-1.92;72.66
16690;BME280;8458;52.220;9.884;2023-03-01T05:17:59;102217.00;;;-1.96;72.73
16690;BME280;8458;52.220;9.884;2023-03-01T05:20:27;102223.03;;;-2.03;72.93
16690;BME280;8458;52.220;9.884;2023-03-01T05:22:58;102213.84;;;-2.02;73.58
16690;BME280;8458;52.220;9.884;2023-03-01T05:25:26;102208.41;;;-2.02;73.09
16690;BME280;8458;52.220;9.884;2023-03-01T05:27:57;102207.25;;;-1.89;73.67
16690;BME280;8458;52.220;9.884;2023-03-01T05:30:24;102207.25;;;-1.89;73.61
16690;BME280;8458;52.220;9.884;2023-03-01T05:32:50;102212.56;;;-1.98;73.73
16690;BME280;8458;52.220;9.884;2023-03-01T05:35:21;102215.28;;;-1.98;74.01
16690;BME280;8458;52.220;9.884;2023-03-01T05:37:49;102204.38;;;-1.88;73.55
16690;BME280;8458;52.220;9.884;2023-03-01T05:40:18;102209.97;;;-1.89;74.17
16690;BME280;8458;52.220;9.884;2023-03-01T05:42:46;102210.97;;;-1.81;74.15
16690;BME280;8458;52.220;9.884;2023-03-01T05:45:13;102215.56;;;-1.81;73.80
16690;BME280;8458;52.220;9.884;2023-03-01T05:47:41;102204.25;;;-1.86;74.08
16690;BME280;8458;52.220;9.884;2023-03-01T05:50:11;102209.25;;;-1.82;74.14
16690;BME280;8458;52.220;9.884;2023-03-01T05:52:38;102216.56;;;-1.82;74.35
16690;BME280;8458;52.220;9.884;2023-03-01T05:55:07;102217.84;;;-1.86;74.52
16690;BME280;8458;52.220;9.884;2023-03-01T05:57:33;102220.16;;;-1.91;74.76
16690;BME280;8458;52.220;9.884;2023-03-01T06:00:00;102200.13;;;-1.90;74.52
16690;BME280;8458;52.220;9.884;2023-03-01T06:02:26;102210.72;;;-2.07;75.03
16690;BME280;8458;52.220;9.884;2023-03-01T06:04:54;102208.69;;;-2.05;74.45
16690;BME280;8458;52.220;9.884;2023-03-01T06:07:20;102214.16;;;-2.14;74.23
16690;BME280;8458;52.220;9.884;2023-03-01T06:09:47;102211.28;;;-2.13;73.96
16690;BME280;8458;52.220;9.884;2023-03-01T06:12:15;102226.44;;;-2.20;73.92
16690;BME280;8458;52.220;9.884;2023-03-01T06:14:41;102214.16;;;-2.24;74.16
16690;BME280;8458;52.220;9.884;2023-03-01T06:17:07;102211.16;;;-2.21;73.94
16690;BME280;8458;52.220;9.884;2023-03-01T06:19:34;102213.00;;;-2.31;73.57
16690;BME280;8458;52.220;9.884;2023-03-01T06:22:00;102223.59;;;-2.28;74.33
16690;BME280;8458;52.220;9.884;2023-03-01T06:24:27;102214.72;;;-2.30;74.13
16690;BME280;8458;52.220;9.884;2023-03-01T06:26:54;102217.44;;;-2.30;74.01
16690;BME280;8458;52.220;9.884;2023-03-01T06:29:22;102215.31;;;-2.37;73.60
16690;BME280;8458;52.220;9.884;2023-03-01T06:31:48;102219.56;;;-2.44;73.53
16690;BME280;8458;52.220;9.884;2023-03-01T06:34:15;102212.69;;;-2.48;73.86
16690;BME280;8458;52.220;9.884;2023-03-01T06:36:42;102213.88;;;-2.50;74.08
16690;BME280;8458;52.220;9.884;2023-03-01T06:39:08;102216.72;;;-2.52;74.17
16690;BME280;8458;52.220;9.884;2023-03-01T06:41:35;102221.13;;;-2.51;74.28
16690;BME280;8458;52.220;9.884;2023-03-01T06:44:01;102215.13;;;-2.45;74.29
16690;BME280;8458;52.220;9.884;2023-03-01T06:46:30;102218.31;;;-2.40;74.60
16690;BME280;8458;52.220;9.884;2023-03-01T06:48:57;102226.19;;;-2.37;74.42
16690;BME280;8458;52.220;9.884;2023-03-01T06:51:23;102218.44;;;-2.31;75.22
16690;BME280;8458;52.220;9.884;2023-03-01T06:53:50;102232.16;;;-2.23;75.13
16690;BME280;8458;52.220;9.884;2023-03-01T06:56:16;102223.03;;;-2.22;75.84
16690;BME280;8458;52.220;9.884;2023-03-01T06:58:43;102223.91;;;-2.12;75.57
16690;BME280;8458;52.220;9.884;2023-03-01T07:01:09;102219.31;;;-2.11;75.51
16690;BME280;8458;52.220;9.884;2023-03-01T07:03:37;102228.75;;;-2.06;75.23
16690;BME280;8458;52.220;9.884;2023-03-01T07:06:04;102213.44;;;-2.07;75.31
16690;BME280;8458;52.220;9.884;2023-03-01T07:08:30;102216.84;;;-2.05;75.89
16690;BME280;8458;52.220;9.884;2023-03-01T07:10:57;102206.44;;;-2.00;76.09
16690;BME280;8458;52.220;9.884;2023-03-01T07:13:24;102205.53;;;-2.00;76.26
16690;BME280;8458;52.220;9.884;2023-03-01T07:15:51;102201.41;;;-1.94;76.22
16690;BME280;8458;52.220;9.884;2023-03-01T07:18:17;102212.41;;;-1.86;77.42
16690;BME280;8458;52.220;9.884;2023-03-01T07:20:45;102208.97;;;-1.88;78.13
16690;BME280;8458;52.220;9.884;2023-03-01T07:23:11;102204.38;;;-1.78;78.57
16690;BME280;8458;52.220;9.884;2023-03-01T07:25:38;102206.97;;;-1.76;79.22
16690;BME280;8458;52.220;9.884;2023-03-01T07:28:05;102205.34;;;-1.69;79.60
16690;BME280;8458;52.220;9.884;2023-03-01T07:30:31;102196.34;;;-1.70;80.13
16690;BME280;8458;52.220;9.884;2023-03-01T07:32:58;102199.47;;;-1.65;80.66
16690;BME280;8458;52.220;9.884;2023-03-01T07:35:25;102199.47;;;-1.65;80.44
16690;BME280;8458;52.220;9.884;2023-03-01T07:37:54;102196.34;;;-1.70;81.21
16690;BME280;8458;52.220;9.884;2023-03-01T07:40:20;102194.31;;;-1.68;81.74
16690;BME280;8458;52.220;9.884;2023-03-01T07:42:47;102185.34;;;-1.78;81.72
16690;BME280;8458;52.220;9.884;2023-03-01T07:45:13;102182.63;;;-1.88;83.39
16690;BME280;8458;52.220;9.884;2023-03-01T07:47:39;102180.06;;;-1.89;84.11
16690;BME280;8458;52.220;9.884;2023-03-01T07:50:07;102178.94;;;-2.06;85.49
16690;BME280;8458;52.220;9.884;2023-03-01T07:52:34;102181.50;;;-2.05;86.17
16690;BME280;8458;52.220;9.884;2023-03-01T07:55:01;102179.53;;;-2.03;86.58
16690;BME280;8458;52.220;9.884;2023-03-01T07:57:28;102185.09;;;-1.94;86.67
16690;BME280;8458;52.220;9.884;2023-03-01T07:59:54;102186.75;;;-1.74;86.19
16690;BME280;8458;52.220;9.884;2023-03-01T08:02:21;102195.06;;;-1.66;86.27
16690;BME280;8458;52.220;9.884;2023-03-01T08:04:47;102191.16;;;-1.53;86.39
16690;BME280;8458;52.220;9.884;2023-03-01T08:07:14;102197.53;;;-1.45;85.87
16690;BME280;8458;52.220;9.884;2023-03-01T08:09:40;102195.13;;;-1.38;86.17
16690;BME280;8458;52.220;9.884;2023-03-01T08:12:08;102186.16;;;-1.20;85.90
16690;BME280;8458;52.220;9.884;2023-03-01T08:14:34;102188.50;;;-1.08;85.49
16690;BME280;8458;52.220;9.884;2023-03-01T08:17:01;102186.03;;;-1.01;85.18
16690;BME280;8458;52.220;9.884;2023-03-01T08:19:28;102186.16;;;-0.93;85.05
16690;BME280;8458;52.220;9.884;2023-03-01T08:21:55;102180.63;;;-0.83;85.15
16690;BME280;8458;52.220;9.884;2023-03-01T08:24:23;102176.59;;;-0.61;85.26
16690;BME280;8458;52.220;9.884;2023-03-01T08:26:50;102183.63;;;-0.40;85.33
16690;BME280;8458;52.220;9.884;2023-03-01T08:29:17;102181.59;;;-0.20;84.94
16690;BME280;8458;52.220;9.884;2023-03-01T08:31:44;102183.28;;;-0.01;84.81
16690;BME280;8458;52.220;9.884;2023-03-01T08:34:12;102178.25;;;0.12;84.47
16690;BME280;8458;52.220;9.884;2023-03-01T08:36:40;102173.56;;;0.23;84.56
16690;BME280;8458;52.220;9.884;2023-03-01T08:39:08;102169.22;;;0.38;83.71
16690;BME280;8458;52.220;9.884;2023-03-01T08:41:35;102174.09;;;0.52;83.44
16690;BME280;8458;52.220;9.884;2023-03-01T08:44:02;102171.94;;;0.64;82.99
16690;BME280;8458;52.220;9.884;2023-03-01T08:46:32;102173.19;;;0.78;83.38
16690;BME280;8458;52.220;9.884;2023-03-01T08:48:59;102174.59;;;0.82;82.75
16690;BME280;8458;52.220;9.884;2023-03-01T08:51:26;102179.59;;;0.95;82.63
16690;BME280;8458;52.220;9.884;2023-03-01T08:53:52;102178.09;;;1.01;82.66
16690;BME280;8458;52.220;9.884;2023-03-01T08:56:19;102177.09;;;1.18;82.59
16690;BME280;8458;52.220;9.884;2023-03-01T08:58:46;102169.28;;;1.32;80.06
16690;BME280;8458;52.220;9.884;2023-03-01T09:01:15;102178.00;;;1.35;77.28
16690;BME280;8458;52.220;9.884;2023-03-01T09:03:44;102174.06;;;1.38;77.22
16690;BME280;8458;52.220;9.884;2023-03-01T09:06:11;102177.50;;;1.40;77.44
16690;BME280;8458;52.220;9.884;2023-03-01T09:08:39;102170.66;;;1.44;78.27
16690;BME280;8458;52.220;9.884;2023-03-01T09:11:08;102170.81;;;1.42;78.87
16690;BME280;8458;52.220;9.884;2023-03-01T09:13:35;102184.97;;;1.21;78.86
16690;BME280;8458;52.220;9.884;2023-03-01T09:16:03;102175.44;;;1.25;79.91
16690;BME280;8458;52.220;9.884;2023-03-01T09:18:30;102172.72;;;1.50;78.62
16690;BME280;8458;52.220;9.884;2023-03-01T09:21:02;102174.28;;;1.61;78.38
16690;BME280;8458;52.220;9.884;2023-03-01T09:23:32;102167.28;;;1.75;78.62
16690;BME280;8458;52.220;9.884;2023-03-01T09:25:59;102163.19;;;1.87;78.47
16690;BME280;8458;52.220;9.884;2023-03-01T09:28:25;102170.72;;;2.02;78.10
16690;BME280;8458;52.220;9.884;2023-03-01T09:30:52;102156.53;;;2.06;77.11
16690;BME280;8458;52.220;9.884;2023-03-01T09:33:18;102158.75;;;2.11;76.98
16690;BME280;8458;52.220;9.884;2023-03-01T09:35:45;102161.97;;;2.23;75.21
16690;BME280;8458;52.220;9.884;2023-03-01T09:38:14;102159.91;;;2.33;75.23
16690;BME280;8458;52.220;9.884;2023-03-01T09:40:42;102154.38;;;2.41;75.46
16690;BME280;8458;52.220;9.884;2023-03-01T09:43:15;102148.38;;;2.54;75.14
16690;BME280;8458;52.220;9.884;2023-03-01T09:45:45;102144.22;;;2.66;75.69
16690;BME280;8458;52.220;9.884;2023-03-01T09:48:18;102142.47;;;2.74;74.42
16690;BME280;8458;52.220;9.884;2023-03-01T09:50:47;102150.34;;;2.77;73.63
16690;BME280;8458;52.220;9.884;2023-03-01T09:53:18;102145.00;;;2.83;72.98
16690;BME280;8458;52.220;9.884;2023-03-01T09:55:46;102146.13;;;2.97;73.07
16690;BME280;8458;52.220;9.884;2023-03-01T09:58:29;102142.84;;;3.10;72.03
16690;BME280;8458;52.220;9.884;2023-03-01T10:01:01;102141.25;;;3.16;71.14
16690;BME280;8458;52.220;9.884;2023-03-01T10:03:34;102141.56;;;3.21;71.54
16690;BME280;8458;52.220;9.884;2023-03-01T10:06:08;102139.63;;;3.30;71.52
16690;BME280;8458;52.220;9.884;2023-03-01T10:08:42;102136.88;;;3.30;71.79
16690;BME280;8458;52.220;9.884;2023-03-01T10:11:23;102138.59;;;3.31;72.26
16690;BME280;8458;52.220;9.884;2023-03-01T10:13:56;102139.81;;;3.51;71.83
16690;BME280;8458;52.220;9.884;2023-03-01T10:16:28;102147.75;;;3.69;70.42
16690;BME280;8458;52.220;9.884;2023-03-01T10:19:02;102144.47;;;3.74;68.60
16690;BME280;8458;52.220;9.884;2023-03-01T10:21:30;102147.31;;;3.81;68.73
16690;BME280;8458;52.220;9.884;2023-03-01T10:24:10;102140.06;;;3.88;67.22
16690;BME280;8458;52.220;9.884;2023-03-01T10:26:47;102137.59;;;3.93;66.86
16690;BME280;8458;52.220;9.884;2023-03-01T10:29:15;102147.00;;;3.99;67.67
16690;BME280;8458;52.220;9.884;2023-03-01T10:31:43;102137.13;;;4.04;67.36
16690;BME280;8458;52.220;9.884;2023-03-01T10:34:12;102137.09;;;4.12;65.86
16690;BME280;8458;52.220;9.884;2023-03-01T10:36:40;102131.22;;;4.16;66.68
16690;BME280;8458;52.220;9.884;2023-03-01T10:39:17;102140.50;;;4.15;66.63
16690;BME280;8458;52.220;9.884;2023-03-01T10:41:54;102133.88;;;4.24;65.54
16690;BME280;8458;52.220;9.884;2023-03-01T10:44:39;102123.84;;;4.31;65.41
16690;BME280;8458;52.220;9.884;2023-03-01T10:47:14;102126.50;;;4.39;65.03
16690;BME280;8458;52.220;9.884;2023-03-01T10:49:51;102125.56;;;4.47;65.15
16690;BME280;8458;52.220;9.884;2023-03-01T10:52:20;102128.78;;;4.51;63.04
16690;BME280;8458;52.220;9.884;2023-03-01T10:54:54;102122.63;;;4.48;62.08
16690;BME280;8458;52.220;9.884;2023-03-01T10:57:28;102132.19;;;4.53;62.95
16690;BME280;8458;52.220;9.884;2023-03-01T11:00:02;102114.78;;;4.60;62.12
16690;BME280;8458;52.220;9.884;2023-03-01T11:02:30;102112.47;;;4.64;62.46
16690;BME280;8458;52.220;9.884;2023-03-01T11:05:00;102116.84;;;4.73;62.26
16690;BME280;8458;52.220;9.884;2023-03-01T11:07:27;102115.41;;;4.77;63.30
16690;BME280;8458;52.220;9.884;2023-03-01T11:09:56;102123.66;;;4.77;60.37
16690;BME280;8458;52.220;9.884;2023-03-01T11:12:23;102114.34;;;4.78;60.41
16690;BME280;8458;52.220;9.884;2023-03-01T11:14:51;102117.41;;;4.83;60.25
16690;BME280;8458;52.220;9.884;2023-03-01T11:17:23;102106.03;;;4.87;60.62
16690;BME280;8458;52.220;9.884;2023-03-01T11:20:02;102106.03;;;4.87;59.95
16690;BME280;8458;52.220;9.884;2023-03-01T11:22:33;102107.31;;;4.91;61.60
16690;BME280;8458;52.220;9.884;2023-03-01T11:25:03;102102.75;;;4.98;62.18
16690;BME280;8458;52.220;9.884;2023-03-01T11:27:32;102093.63;;;5.12;61.32
16690;BME280;8458;52.220;9.884;2023-03-01T11:30:02;102099.34;;;5.32;59.11
16690;BME280;8458;52.220;9.884;2023-03-01T11:32:39;102099.78;;;5.36;57.10
16690;BME280;8458;52.220;9.884;2023-03-01T11:35:12;102098.16;;;5.42;58.31
16690;BME280;8458;52.220;9.884;2023-03-01T11:37:44;102095.84;;;5.45;58.11
16690;BME280;8458;52.220;9.884;2023-03-01T11:40:23;102096.25;;;5.64;57.67
16690;BME280;8458;52.220;9.884;2023-03-01T11:42:58;102078.16;;;5.76;57.01
16690;BME280;8458;52.220;9.884;2023-03-01T11:45:33;102092.13;;;5.74;55.47
16690;BME280;8458;52.220;9.884;2023-03-01T11:51:04;102079.88;;;5.77;55.56
16690;BME280;8458;52.220;9.884;2023-03-01T11:53:50;102081.38;;;5.80;54.65
16690;BME280;8458;52.220;9.884;2023-03-01T11:56:29;102078.16;;;5.76;53.14
16690;BME280;8458;52.220;9.884;2023-03-01T11:59:07;102073.72;;;5.75;54.66
16690;BME280;8458;52.220;9.884;2023-03-01T12:01:48;102065.06;;;5.78;56.00
16690;BME280;8458;52.220;9.884;2023-03-01T12:04:36;102068.84;;;5.77;54.50
16690;BME280;8458;52.220;9.884;2023-03-01T12:07:12;102063.00;;;5.87;55.41
16690;BME280;8458;52.220;9.884;2023-03-01T12:09:53;102063.06;;;5.93;54.57
16690;BME280;8458;52.220;9.884;2023-03-01T12:12:31;102063.16;;;6.07;53.17
16690;BME280;8458;52.220;9.884;2023-03-01T12:15:20;102053.06;;;6.14;52.94
16690;BME280;8458;52.220;9.884;2023-03-01T12:18:20;102055.66;;;6.22;54.00
16690;BME280;8458;52.220;9.884;2023-03-01T12:20:58;102047.66;;;6.27;51.96
16690;BME280;8458;52.220;9.884;2023-03-01T12:26:28;102044.31;;;6.39;51.77
16690;BME280;8458;52.220;9.884;2023-03-01T12:29:19;102031.97;;;6.35;52.14
16690;BME280;8458;52.220;9.884;2023-03-01T12:32:08;102035.00;;;6.40;52.57
16690;BME280;8458;52.220;9.884;2023-03-01T12:34:55;102028.19;;;6.36;51.74
16690;BME280;8458;52.220;9.884;2023-03-01T12:37:36;102016.34;;;6.42;52.67
16690;BME280;8458;52.220;9.884;2023-03-01T12:40:23;102020.22;;;6.54;53.06
16690;BME280;8458;52.220;9.884;2023-03-01T12:43:01;102021.94;;;6.55;53.46
16690;BME280;8458;52.220;9.884;2023-03-01T12:48:37;101999.13;;;6.88;51.93
16690;BME280;8458;52.220;9.884;2023-03-01T12:51:09;101994.88;;;6.92;50.42
16690;BME280;8458;52.220;9.884;2023-03-01T12:53:40;102004.44;;;6.96;51.02
16690;BME280;8458;52.220;9.884;2023-03-01T12:56:09;101993.41;;;6.96;51.75
16690;BME280;8458;52.220;9.884;2023-03-01T12:58:41;101980.03;;;6.93;51.11
16690;BME280;8458;52.220;9.884;2023-03-01T13:01:19;101986.81;;;6.91;50.66
16690;BME280;8458;52.220;9.884;2023-03-01T13:04:08;101982.53;;;6.81;50.24
16690;BME280;8458;52.220;9.884;2023-03-01T13:06:47;101978.72;;;6.76;50.23
16690;BME280;8458;52.220;9.884;2023-03-01T13:09:19;101976.59;;;6.71;50.24
16690;BME280;8458;52.220;9.884;2023-03-01T13:11:48;101973.63;;;6.73;51.19
16690;BME280;8458;52.220;9.884;2023-03-01T13:14:37;101973.84;;;6.78;49.96
16690;BME280;8458;52.220;9.884;2023-03-01T13:17:30;101972.81;;;6.79;49.00
16690;BME280;8458;52.220;9.884;2023-03-01T13:19:57;101974.06;;;6.83;49.35
16690;BME280;8458;52.220;9.884;2023-03-01T13:22:27;101967.28;;;6.92;51.00
16690;BME280;8458;52.220;9.884;2023-03-01T13:25:02;101962.66;;;6.99;52.16
16690;BME280;8458;52.220;9.884;2023-03-01T13:27:29;101959.69;;;7.01;49.77